Emeryville, New York
Current Conditions -  °F | °C
As of 2:58 PM on Wednesday 17 Dec 2014 (Local Time) from KGTB Reporting Station
Light Rain Light Rain  
Wind Chill: 26°   Ceiling: 300
Heat Index: 36°   Visibility: 8mi
Dew Point: 35°   Wind: 16mph
Humidity: 99%   Direction: 250°WSW
Pressure: 29.78"   Gusts: 22mph
Location:  44.3309°N, 75.4775°W
Report Text: KGTB 171958Z AUTO 25014G19KT 8SM -RA OVC003 02/02 A2978 RMK AO2 PK WND 26026/44 DZB1857E1904 SLPNO P0002 T00210019
Loading
Personal Weather Stations






























Interactive Weather Map New forecast layout! Learn more

10-Day Weather Forecast

Advertisements
Track Severe Weather on mobile